sensor_id;sensor_type;location;lat;lon;timestamp;P1;durP1;ratioP1;P2;durP2;ratioP2
67160;SDS011;54088;52.238;21.104;2022-09-17T00:00:21;4.93;;;2.80;;
67160;SDS011;54088;52.238;21.104;2022-09-17T00:02:53;7.53;;;3.10;;
67160;SDS011;54088;52.238;21.104;2022-09-17T00:05:22;6.55;;;2.90;;
67160;SDS011;54088;52.238;21.104;2022-09-17T00:07:48;5.70;;;3.03;;
67160;SDS011;54088;52.238;21.104;2022-09-17T00:10:17;7.13;;;3.10;;
67160;SDS011;54088;52.238;21.104;2022-09-17T00:12:44;5.75;;;2.70;;
67160;SDS011;54088;52.238;21.104;2022-09-17T00:15:11;8.13;;;3.00;;
67160;SDS011;54088;52.238;21.104;2022-09-17T00:17:37;6.22;;;3.22;;
67160;SDS011;54088;52.238;21.104;2022-09-17T00:20:03;7.22;;;3.55;;
67160;SDS011;54088;52.238;21.104;2022-09-17T00:22:31;6.22;;;2.90;;
67160;SDS011;54088;52.238;21.104;2022-09-17T00:24:57;6.78;;;2.50;;
67160;SDS011;54088;52.238;21.104;2022-09-17T00:27:23;4.90;;;2.78;;
67160;SDS011;54088;52.238;21.104;2022-09-17T00:29:48;5.45;;;2.80;;
67160;SDS011;54088;52.238;21.104;2022-09-17T00:32:14;8.13;;;2.90;;
67160;SDS011;54088;52.238;21.104;2022-09-17T00:34:41;5.47;;;2.75;;
67160;SDS011;54088;52.238;21.104;2022-09-17T00:37:07;7.00;;;2.88;;
67160;SDS011;54088;52.238;21.104;2022-09-17T00:39:32;7.68;;;2.90;;
67160;SDS011;54088;52.238;21.104;2022-09-17T00:41:58;6.53;;;3.20;;
67160;SDS011;54088;52.238;21.104;2022-09-17T00:44:40;5.18;;;2.60;;
67160;SDS011;54088;52.238;21.104;2022-09-17T00:49:38;6.05;;;2.70;;
67160;SDS011;54088;52.238;21.104;2022-09-17T00:52:05;7.03;;;2.90;;
67160;SDS011;54088;52.238;21.104;2022-09-17T00:54:35;7.10;;;3.10;;
67160;SDS011;54088;52.238;21.104;2022-09-17T00:57:03;8.32;;;2.92;;
67160;SDS011;54088;52.238;21.104;2022-09-17T00:59:29;6.00;;;2.40;;
67160;SDS011;54088;52.238;21.104;2022-09-17T01:01:55;6.57;;;3.03;;
67160;SDS011;54088;52.238;21.104;2022-09-17T01:04:23;5.82;;;2.55;;
67160;SDS011;54088;52.238;21.104;2022-09-17T01:07:34;5.30;;;2.45;;
67160;SDS011;54088;52.238;21.104;2022-09-17T01:17:46;6.05;;;2.75;;
67160;SDS011;54088;52.238;21.104;2022-09-17T01:29:00;6.75;;;3.15;;
67160;SDS011;54088;52.238;21.104;2022-09-17T01:40:20;8.07;;;3.05;;
67160;SDS011;54088;52.238;21.104;2022-09-17T01:42:59;6.43;;;3.00;;
67160;SDS011;54088;52.238;21.104;2022-09-17T01:45:38;7.93;;;3.10;;
67160;SDS011;54088;52.238;21.104;2022-09-17T01:50:49;6.60;;;2.78;;
67160;SDS011;54088;52.238;21.104;2022-09-17T01:53:20;6.80;;;2.95;;
67160;SDS011;54088;52.238;21.104;2022-09-17T01:55:51;7.10;;;3.10;;
67160;SDS011;54088;52.238;21.104;2022-09-17T01:58:26;7.25;;;3.00;;
67160;SDS011;54088;52.238;21.104;2022-09-17T02:01:02;11.63;;;3.30;;
67160;SDS011;54088;52.238;21.104;2022-09-17T02:08:36;6.85;;;3.05;;
67160;SDS011;54088;52.238;21.104;2022-09-17T02:11:09;5.47;;;2.80;;
67160;SDS011;54088;52.238;21.104;2022-09-17T02:16:12;6.55;;;2.63;;
67160;SDS011;54088;52.238;21.104;2022-09-17T02:26:53;8.73;;;2.70;;
67160;SDS011;54088;52.238;21.104;2022-09-17T02:29:36;5.40;;;2.92;;
67160;SDS011;54088;52.238;21.104;2022-09-17T02:32:05;6.93;;;3.00;;
67160;SDS011;54088;52.238;21.104;2022-09-17T02:34:32;6.43;;;2.80;;
67160;SDS011;54088;52.238;21.104;2022-09-17T02:36:59;7.53;;;3.15;;
67160;SDS011;54088;52.238;21.104;2022-09-17T02:39:25;6.57;;;3.00;;
67160;SDS011;54088;52.238;21.104;2022-09-17T02:55:31;5.95;;;2.65;;
67160;SDS011;54088;52.238;21.104;2022-09-17T03:00:41;9.73;;;3.53;;
67160;SDS011;54088;52.238;21.104;2022-09-17T03:03:16;8.32;;;4.13;;
67160;SDS011;54088;52.238;21.104;2022-09-17T03:05:50;9.50;;;5.45;;
67160;SDS011;54088;52.238;21.104;2022-09-17T03:08:17;9.95;;;5.15;;
67160;SDS011;54088;52.238;21.104;2022-09-17T03:10:44;8.18;;;5.28;;
67160;SDS011;54088;52.238;21.104;2022-09-17T03:13:13;7.32;;;4.78;;
67160;SDS011;54088;52.238;21.104;2022-09-17T03:15:39;9.02;;;4.80;;
67160;SDS011;54088;52.238;21.104;2022-09-17T03:18:05;7.28;;;4.07;;
67160;SDS011;54088;52.238;21.104;2022-09-17T03:20:31;9.68;;;4.43;;
67160;SDS011;54088;52.238;21.104;2022-09-17T03:22:56;6.85;;;3.60;;
67160;SDS011;54088;52.238;21.104;2022-09-17T03:25:22;9.52;;;4.45;;
67160;SDS011;54088;52.238;21.104;2022-09-17T03:27:48;8.05;;;3.92;;
67160;SDS011;54088;52.238;21.104;2022-09-17T03:30:13;9.45;;;4.50;;
67160;SDS011;54088;52.238;21.104;2022-09-17T03:32:39;7.55;;;3.55;;
67160;SDS011;54088;52.238;21.104;2022-09-17T03:35:05;9.93;;;4.30;;
67160;SDS011;54088;52.238;21.104;2022-09-17T03:37:30;7.90;;;3.50;;
67160;SDS011;54088;52.238;21.104;2022-09-17T03:39:56;7.70;;;3.58;;
67160;SDS011;54088;52.238;21.104;2022-09-17T03:42:22;7.78;;;3.80;;
67160;SDS011;54088;52.238;21.104;2022-09-17T03:44:47;6.57;;;3.72;;
67160;SDS011;54088;52.238;21.104;2022-09-17T03:47:13;9.35;;;3.90;;
67160;SDS011;54088;52.238;21.104;2022-09-17T03:49:40;6.63;;;3.72;;
67160;SDS011;54088;52.238;21.104;2022-09-17T03:52:06;8.18;;;3.97;;
67160;SDS011;54088;52.238;21.104;2022-09-17T03:54:32;9.98;;;5.15;;
67160;SDS011;54088;52.238;21.104;2022-09-17T03:56:57;10.05;;;4.80;;
67160;SDS011;54088;52.238;21.104;2022-09-17T03:59:23;12.05;;;5.75;;
67160;SDS011;54088;52.238;21.104;2022-09-17T04:01:49;10.73;;;5.20;;
67160;SDS011;54088;52.238;21.104;2022-09-17T04:04:14;13.77;;;7.93;;
67160;SDS011;54088;52.238;21.104;2022-09-17T04:06:40;14.55;;;5.10;;
67160;SDS011;54088;52.238;21.104;2022-09-17T04:09:05;10.77;;;5.35;;
67160;SDS011;54088;52.238;21.104;2022-09-17T04:11:32;9.05;;;4.38;;
67160;SDS011;54088;52.238;21.104;2022-09-17T04:13:58;10.48;;;5.10;;
67160;SDS011;54088;52.238;21.104;2022-09-17T04:16:24;10.13;;;5.20;;
67160;SDS011;54088;52.238;21.104;2022-09-17T04:18:49;9.15;;;4.57;;
67160;SDS011;54088;52.238;21.104;2022-09-17T04:21:15;15.95;;;8.57;;
67160;SDS011;54088;52.238;21.104;2022-09-17T04:23:41;9.43;;;4.85;;
67160;SDS011;54088;52.238;21.104;2022-09-17T04:26:06;10.43;;;4.75;;
67160;SDS011;54088;52.238;21.104;2022-09-17T04:28:32;11.20;;;4.85;;
67160;SDS011;54088;52.238;21.104;2022-09-17T04:30:57;9.05;;;4.82;;
67160;SDS011;54088;52.238;21.104;2022-09-17T04:33:23;12.50;;;7.10;;
67160;SDS011;54088;52.238;21.104;2022-09-17T04:35:49;12.80;;;8.15;;
67160;SDS011;54088;52.238;21.104;2022-09-17T04:38:14;12.30;;;6.93;;
67160;SDS011;54088;52.238;21.104;2022-09-17T04:40:42;16.58;;;9.82;;
67160;SDS011;54088;52.238;21.104;2022-09-17T04:43:08;9.60;;;4.50;;
67160;SDS011;54088;52.238;21.104;2022-09-17T04:45:34;10.25;;;6.00;;
67160;SDS011;54088;52.238;21.104;2022-09-17T04:48:00;11.93;;;7.90;;
67160;SDS011;54088;52.238;21.104;2022-09-17T04:50:26;11.65;;;5.78;;
67160;SDS011;54088;52.238;21.104;2022-09-17T04:52:52;9.73;;;5.78;;
67160;SDS011;54088;52.238;21.104;2022-09-17T04:55:18;11.10;;;5.75;;
67160;SDS011;54088;52.238;21.104;2022-09-17T04:57:47;9.07;;;5.07;;
67160;SDS011;54088;52.238;21.104;2022-09-17T05:00:15;6.80;;;3.92;;
67160;SDS011;54088;52.238;21.104;2022-09-17T05:02:45;8.32;;;4.50;;
67160;SDS011;54088;52.238;21.104;2022-09-17T05:05:12;8.40;;;3.95;;
67160;SDS011;54088;52.238;21.104;2022-09-17T05:07:39;9.43;;;4.10;;
67160;SDS011;54088;52.238;21.104;2022-09-17T05:10:05;7.47;;;4.75;;
67160;SDS011;54088;52.238;21.104;2022-09-17T05:12:31;9.07;;;5.00;;
67160;SDS011;54088;52.238;21.104;2022-09-17T05:14:57;8.48;;;4.53;;
67160;SDS011;54088;52.238;21.104;2022-09-17T05:17:23;8.90;;;4.13;;
67160;SDS011;54088;52.238;21.104;2022-09-17T05:19:48;8.35;;;3.60;;
67160;SDS011;54088;52.238;21.104;2022-09-17T05:22:14;6.65;;;3.10;;
67160;SDS011;54088;52.238;21.104;2022-09-17T05:24:39;7.60;;;3.67;;
67160;SDS011;54088;52.238;21.104;2022-09-17T05:27:05;7.28;;;3.28;;
67160;SDS011;54088;52.238;21.104;2022-09-17T05:29:32;5.93;;;3.05;;
67160;SDS011;54088;52.238;21.104;2022-09-17T05:31:58;6.68;;;3.50;;
67160;SDS011;54088;52.238;21.104;2022-09-17T05:34:24;7.15;;;2.92;;
67160;SDS011;54088;52.238;21.104;2022-09-17T05:36:49;5.70;;;3.05;;
67160;SDS011;54088;52.238;21.104;2022-09-17T05:39:15;5.97;;;2.72;;
67160;SDS011;54088;52.238;21.104;2022-09-17T05:41:41;5.55;;;2.97;;
67160;SDS011;54088;52.238;21.104;2022-09-17T05:44:07;6.10;;;3.60;;
67160;SDS011;54088;52.238;21.104;2022-09-17T05:46:32;5.95;;;2.92;;
67160;SDS011;54088;52.238;21.104;2022-09-17T05:48:58;6.43;;;2.60;;
67160;SDS011;54088;52.238;21.104;2022-09-17T05:51:24;8.07;;;3.88;;
67160;SDS011;54088;52.238;21.104;2022-09-17T05:53:49;5.93;;;2.90;;
67160;SDS011;54088;52.238;21.104;2022-09-17T05:56:15;5.88;;;2.45;;
67160;SDS011;54088;52.238;21.104;2022-09-17T05:58:40;6.50;;;2.50;;
67160;SDS011;54088;52.238;21.104;2022-09-17T06:01:06;7.38;;;2.65;;
67160;SDS011;54088;52.238;21.104;2022-09-17T06:03:32;4.18;;;1.92;;
67160;SDS011;54088;52.238;21.104;2022-09-17T06:05:58;5.75;;;2.15;;
67160;SDS011;54088;52.238;21.104;2022-09-17T06:08:24;5.32;;;2.40;;
67160;SDS011;54088;52.238;21.104;2022-09-17T06:10:51;5.85;;;2.33;;
67160;SDS011;54088;52.238;21.104;2022-09-17T06:13:17;5.10;;;1.92;;
67160;SDS011;54088;52.238;21.104;2022-09-17T06:15:51;6.88;;;2.20;;
67160;SDS011;54088;52.238;21.104;2022-09-17T06:18:17;5.40;;;1.98;;
67160;SDS011;54088;52.238;21.104;2022-09-17T06:20:57;4.50;;;1.92;;
67160;SDS011;54088;52.238;21.104;2022-09-17T06:23:24;4.65;;;1.95;;
67160;SDS011;54088;52.238;21.104;2022-09-17T06:25:54;4.03;;;1.92;;
67160;SDS011;54088;52.238;21.104;2022-09-17T06:28:26;6.03;;;2.00;;
67160;SDS011;54088;52.238;21.104;2022-09-17T06:30:52;6.23;;;1.77;;
67160;SDS011;54088;52.238;21.104;2022-09-17T06:33:20;5.22;;;1.70;;
67160;SDS011;54088;52.238;21.104;2022-09-17T06:35:47;5.65;;;1.90;;
67160;SDS011;54088;52.238;21.104;2022-09-17T06:38:13;6.00;;;1.67;;
67160;SDS011;54088;52.238;21.104;2022-09-17T06:40:39;3.85;;;1.55;;
67160;SDS011;54088;52.238;21.104;2022-09-17T06:43:05;4.85;;;1.80;;
67160;SDS011;54088;52.238;21.104;2022-09-17T06:45:31;6.07;;;1.88;;
67160;SDS011;54088;52.238;21.104;2022-09-17T06:47:57;5.10;;;1.95;;
67160;SDS011;54088;52.238;21.104;2022-09-17T06:50:27;4.40;;;1.95;;
67160;SDS011;54088;52.238;21.104;2022-09-17T06:52:53;5.78;;;1.83;;
67160;SDS011;54088;52.238;21.104;2022-09-17T06:55:19;5.97;;;2.30;;
67160;SDS011;54088;52.238;21.104;2022-09-17T06:57:45;5.70;;;1.90;;
67160;SDS011;54088;52.238;21.104;2022-09-17T07:00:11;5.63;;;1.77;;
67160;SDS011;54088;52.238;21.104;2022-09-17T07:02:38;5.15;;;1.75;;
67160;SDS011;54088;52.238;21.104;2022-09-17T07:05:04;5.63;;;1.80;;
67160;SDS011;54088;52.238;21.104;2022-09-17T07:07:30;4.72;;;1.60;;
67160;SDS011;54088;52.238;21.104;2022-09-17T07:09:55;7.15;;;1.80;;
67160;SDS011;54088;52.238;21.104;2022-09-17T07:12:21;4.53;;;1.60;;
67160;SDS011;54088;52.238;21.104;2022-09-17T07:14:47;6.07;;;1.75;;
67160;SDS011;54088;52.238;21.104;2022-09-17T07:17:13;4.05;;;1.60;;
67160;SDS011;54088;52.238;21.104;2022-09-17T07:19:39;4.93;;;1.52;;
67160;SDS011;54088;52.238;21.104;2022-09-17T07:22:04;4.20;;;1.70;;
67160;SDS011;54088;52.238;21.104;2022-09-17T07:24:30;5.32;;;2.08;;
67160;SDS011;54088;52.238;21.104;2022-09-17T07:26:56;5.10;;;2.13;;
67160;SDS011;54088;52.238;21.104;2022-09-17T07:29:22;12.07;;;2.33;;
67160;SDS011;54088;52.238;21.104;2022-09-17T07:31:50;4.80;;;1.90;;
67160;SDS011;54088;52.238;21.104;2022-09-17T07:34:16;10.70;;;2.28;;
67160;SDS011;54088;52.238;21.104;2022-09-17T07:36:42;5.57;;;1.95;;
67160;SDS011;54088;52.238;21.104;2022-09-17T07:39:08;5.18;;;2.00;;
67160;SDS011;54088;52.238;21.104;2022-09-17T07:41:35;6.68;;;2.10;;
67160;SDS011;54088;52.238;21.104;2022-09-17T07:44:01;6.97;;;2.30;;
67160;SDS011;54088;52.238;21.104;2022-09-17T07:46:27;6.65;;;2.28;;
67160;SDS011;54088;52.238;21.104;2022-09-17T07:48:53;5.40;;;2.85;;
67160;SDS011;54088;52.238;21.104;2022-09-17T07:51:20;6.45;;;1.90;;
67160;SDS011;54088;52.238;21.104;2022-09-17T07:53:51;6.05;;;2.38;;
67160;SDS011;54088;52.238;21.104;2022-09-17T07:56:18;5.78;;;2.53;;
67160;SDS011;54088;52.238;21.104;2022-09-17T07:58:44;5.55;;;2.60;;
67160;SDS011;54088;52.238;21.104;2022-09-17T08:01:10;5.43;;;2.67;;
67160;SDS011;54088;52.238;21.104;2022-09-17T08:03:37;6.30;;;2.80;;
67160;SDS011;54088;52.238;21.104;2022-09-17T08:06:11;7.10;;;2.38;;
67160;SDS011;54088;52.238;21.104;2022-09-17T08:08:38;7.20;;;2.80;;
67160;SDS011;54088;52.238;21.104;2022-09-17T08:11:09;7.05;;;2.63;;
67160;SDS011;54088;52.238;21.104;2022-09-17T08:13:36;7.60;;;2.47;;
67160;SDS011;54088;52.238;21.104;2022-09-17T08:16:03;7.75;;;2.38;;
67160;SDS011;54088;52.238;21.104;2022-09-17T08:18:31;4.95;;;2.53;;
67160;SDS011;54088;52.238;21.104;2022-09-17T08:20:57;4.68;;;2.40;;
67160;SDS011;54088;52.238;21.104;2022-09-17T08:23:25;7.10;;;2.65;;
67160;SDS011;54088;52.238;21.104;2022-09-17T08:25:55;4.85;;;2.03;;
67160;SDS011;54088;52.238;21.104;2022-09-17T08:28:22;11.73;;;3.05;;
67160;SDS011;54088;52.238;21.104;2022-09-17T08:30:49;6.25;;;2.80;;
67160;SDS011;54088;52.238;21.104;2022-09-17T08:33:16;6.95;;;2.70;;
67160;SDS011;54088;52.238;21.104;2022-09-17T08:35:42;6.68;;;2.45;;
67160;SDS011;54088;52.238;21.104;2022-09-17T08:38:24;8.38;;;2.92;;
67160;SDS011;54088;52.238;21.104;2022-09-17T08:40:55;5.80;;;1.95;;
67160;SDS011;54088;52.238;21.104;2022-09-17T08:43:24;5.82;;;2.42;;
67160;SDS011;54088;52.238;21.104;2022-09-17T08:45:55;5.05;;;2.40;;
67160;SDS011;54088;52.238;21.104;2022-09-17T08:48:24;5.35;;;2.10;;
67160;SDS011;54088;52.238;21.104;2022-09-17T08:50:58;6.13;;;2.50;;
67160;SDS011;54088;52.238;21.104;2022-09-17T08:53:28;4.72;;;2.10;;
67160;SDS011;54088;52.238;21.104;2022-09-17T08:56:03;5.43;;;1.90;;
67160;SDS011;54088;52.238;21.104;2022-09-17T09:07:12;5.07;;;2.20;;
67160;SDS011;54088;52.238;21.104;2022-09-17T09:09:44;3.65;;;1.80;;
67160;SDS011;54088;52.238;21.104;2022-09-17T09:12:32;4.70;;;1.80;;
67160;SDS011;54088;52.238;21.104;2022-09-17T09:18:02;3.70;;;1.48;;
67160;SDS011;54088;52.238;21.104;2022-09-17T09:26:07;4.40;;;1.70;;
67160;SDS011;54088;52.238;21.104;2022-09-17T09:33:56;3.70;;;1.77;;
67160;SDS011;54088;52.238;21.104;2022-09-17T09:36:25;4.32;;;1.38;;
67160;SDS011;54088;52.238;21.104;2022-09-17T09:38:55;3.63;;;1.60;;
67160;SDS011;54088;52.238;21.104;2022-09-17T09:44:32;5.43;;;1.70;;
67160;SDS011;54088;52.238;21.104;2022-09-17T09:47:04;5.28;;;1.90;;
67160;SDS011;54088;52.238;21.104;2022-09-17T09:57:51;5.22;;;1.70;;
67160;SDS011;54088;52.238;21.104;2022-09-17T10:00:27;4.82;;;1.65;;
67160;SDS011;54088;52.238;21.104;2022-09-17T10:05:34;5.75;;;1.63;;
67160;SDS011;54088;52.238;21.104;2022-09-17T10:08:00;4.75;;;2.05;;
67160;SDS011;54088;52.238;21.104;2022-09-17T10:10:55;4.45;;;1.80;;
67160;SDS011;54088;52.238;21.104;2022-09-17T10:13:23;2.97;;;1.48;;
67160;SDS011;54088;52.238;21.104;2022-09-17T10:15:48;4.20;;;1.85;;
67160;SDS011;54088;52.238;21.104;2022-09-17T10:18:18;5.60;;;1.95;;
67160;SDS011;54088;52.238;21.104;2022-09-17T10:23:22;3.78;;;2.05;;
67160;SDS011;54088;52.238;21.104;2022-09-17T10:25:49;5.28;;;1.90;;
67160;SDS011;54088;52.238;21.104;2022-09-17T10:30:57;6.20;;;1.80;;
67160;SDS011;54088;52.238;21.104;2022-09-17T10:33:39;7.15;;;3.03;;
67160;SDS011;54088;52.238;21.104;2022-09-17T10:39:17;5.47;;;1.77;;
67160;SDS011;54088;52.238;21.104;2022-09-17T10:44:22;3.65;;;1.70;;
67160;SDS011;54088;52.238;21.104;2022-09-17T10:46:53;3.35;;;1.85;;
67160;SDS011;54088;52.238;21.104;2022-09-17T10:52:13;3.53;;;1.30;;
67160;SDS011;54088;52.238;21.104;2022-09-17T10:57:42;3.50;;;1.35;;
67160;SDS011;54088;52.238;21.104;2022-09-17T11:00:20;2.97;;;1.42;;
67160;SDS011;54088;52.238;21.104;2022-09-17T11:05:52;3.25;;;1.73;;
67160;SDS011;54088;52.238;21.104;2022-09-17T11:08:38;4.13;;;1.90;;
67160;SDS011;54088;52.238;21.104;2022-09-17T11:11:11;6.43;;;2.00;;
67160;SDS011;54088;52.238;21.104;2022-09-17T11:27:59;3.50;;;1.58;;
67160;SDS011;54088;52.238;21.104;2022-09-17T11:39:18;3.28;;;1.40;;
67160;SDS011;54088;52.238;21.104;2022-09-17T11:41:59;4.80;;;1.80;;
67160;SDS011;54088;52.238;21.104;2022-09-17T11:44:32;4.40;;;1.60;;
67160;SDS011;54088;52.238;21.104;2022-09-17T11:47:08;4.30;;;1.50;;
67160;SDS011;54088;52.238;21.104;2022-09-17T11:49:41;4.60;;;1.73;;
67160;SDS011;54088;52.238;21.104;2022-09-17T11:52:32;4.78;;;1.98;;
67160;SDS011;54088;52.238;21.104;2022-09-17T11:55:21;4.55;;;1.40;;
67160;SDS011;54088;52.238;21.104;2022-09-17T11:58:08;4.18;;;1.80;;
67160;SDS011;54088;52.238;21.104;2022-09-17T12:00:51;4.68;;;1.42;;
67160;SDS011;54088;52.238;21.104;2022-09-17T12:03:41;4.97;;;1.95;;
67160;SDS011;54088;52.238;21.104;2022-09-17T12:06:13;5.43;;;1.52;;
67160;SDS011;54088;52.238;21.104;2022-09-17T12:11:54;7.40;;;2.15;;
67160;SDS011;54088;52.238;21.104;2022-09-17T12:17:22;5.40;;;2.22;;
67160;SDS011;54088;52.238;21.104;2022-09-17T12:19:53;4.53;;;1.70;;
67160;SDS011;54088;52.238;21.104;2022-09-17T12:22:24;6.47;;;1.92;;
67160;SDS011;54088;52.238;21.104;2022-09-17T12:24:53;3.80;;;1.90;;
67160;SDS011;54088;52.238;21.104;2022-09-17T12:43:57;4.22;;;1.50;;
67160;SDS011;54088;52.238;21.104;2022-09-17T12:49:46;3.55;;;1.50;;
67160;SDS011;54088;52.238;21.104;2022-09-17T12:57:25;2.80;;;1.60;;
67160;SDS011;54088;52.238;21.104;2022-09-17T13:00:11;3.47;;;1.60;;
67160;SDS011;54088;52.238;21.104;2022-09-17T13:02:39;3.03;;;1.65;;
67160;SDS011;54088;52.238;21.104;2022-09-17T13:13:26;5.80;;;2.22;;
67160;SDS011;54088;52.238;21.104;2022-09-17T13:19:36;3.47;;;1.77;;
67160;SDS011;54088;52.238;21.104;2022-09-17T13:24:44;4.22;;;1.90;;
67160;SDS011;54088;52.238;21.104;2022-09-17T13:27:22;4.30;;;2.17;;
67160;SDS011;54088;52.238;21.104;2022-09-17T13:37:40;5.45;;;2.50;;
67160;SDS011;54088;52.238;21.104;2022-09-17T13:42:46;4.93;;;2.35;;
67160;SDS011;54088;52.238;21.104;2022-09-17T13:45:15;4.47;;;2.40;;
67160;SDS011;54088;52.238;21.104;2022-09-17T13:47:55;5.22;;;2.63;;
67160;SDS011;54088;52.238;21.104;2022-09-17T13:50:33;4.38;;;2.20;;
67160;SDS011;54088;52.238;21.104;2022-09-17T13:55:43;4.40;;;2.25;;
67160;SDS011;54088;52.238;21.104;2022-09-17T13:58:31;5.13;;;2.50;;
67160;SDS011;54088;52.238;21.104;2022-09-17T14:01:11;4.00;;;2.08;;
67160;SDS011;54088;52.238;21.104;2022-09-17T14:13:50;4.25;;;2.05;;
67160;SDS011;54088;52.238;21.104;2022-09-17T14:30:00;3.88;;;2.00;;
67160;SDS011;54088;52.238;21.104;2022-09-17T14:35:36;5.50;;;2.00;;
67160;SDS011;54088;52.238;21.104;2022-09-17T14:38:15;4.20;;;2.00;;
67160;SDS011;54088;52.238;21.104;2022-09-17T14:46:08;4.30;;;2.10;;
67160;SDS011;54088;52.238;21.104;2022-09-17T14:48:39;4.70;;;2.35;;
67160;SDS011;54088;52.238;21.104;2022-09-17T14:56:34;5.32;;;3.00;;
67160;SDS011;54088;52.238;21.104;2022-09-17T14:59:50;5.07;;;2.70;;
67160;SDS011;54088;52.238;21.104;2022-09-17T15:01:56;5.32;;;2.47;;
67160;SDS011;54088;52.238;21.104;2022-09-17T15:06:49;7.35;;;2.45;;
67160;SDS011;54088;52.238;21.104;2022-09-17T15:09:24;5.05;;;2.90;;
67160;SDS011;54088;52.238;21.104;2022-09-17T15:11:52;4.65;;;2.63;;
67160;SDS011;54088;52.238;21.104;2022-09-17T15:14:27;4.55;;;2.50;;
67160;SDS011;54088;52.238;21.104;2022-09-17T15:16:54;5.07;;;2.47;;
67160;SDS011;54088;52.238;21.104;2022-09-17T15:22:28;5.93;;;3.22;;
67160;SDS011;54088;52.238;21.104;2022-09-17T15:27:37;4.55;;;2.55;;
67160;SDS011;54088;52.238;21.104;2022-09-17T15:30:09;5.32;;;2.65;;
67160;SDS011;54088;52.238;21.104;2022-09-17T15:32:40;5.55;;;2.97;;
67160;SDS011;54088;52.238;21.104;2022-09-17T15:40:30;6.80;;;3.40;;
67160;SDS011;54088;52.238;21.104;2022-09-17T15:45:52;8.57;;;4.10;;
67160;SDS011;54088;52.238;21.104;2022-09-17T15:51:14;7.70;;;3.70;;
67160;SDS011;54088;52.238;21.104;2022-09-17T15:54:00;6.43;;;3.60;;
67160;SDS011;54088;52.238;21.104;2022-09-17T15:56:37;6.10;;;3.50;;
67160;SDS011;54088;52.238;21.104;2022-09-17T15:59:23;6.72;;;3.70;;
67160;SDS011;54088;52.238;21.104;2022-09-17T16:01:53;6.40;;;3.42;;
67160;SDS011;54088;52.238;21.104;2022-09-17T16:04:21;7.57;;;4.60;;
67160;SDS011;54088;52.238;21.104;2022-09-17T16:06:55;6.68;;;4.00;;
67160;SDS011;54088;52.238;21.104;2022-09-17T16:09:46;7.20;;;4.20;;
67160;SDS011;54088;52.238;21.104;2022-09-17T16:12:15;6.57;;;3.83;;
67160;SDS011;54088;52.238;21.104;2022-09-17T16:14:46;7.50;;;4.53;;
67160;SDS011;54088;52.238;21.104;2022-09-17T16:17:24;5.90;;;3.58;;
67160;SDS011;54088;52.238;21.104;2022-09-17T16:19:56;6.63;;;4.00;;
67160;SDS011;54088;52.238;21.104;2022-09-17T16:22:43;5.50;;;3.72;;
67160;SDS011;54088;52.238;21.104;2022-09-17T16:25:11;8.13;;;4.03;;
67160;SDS011;54088;52.238;21.104;2022-09-17T16:27:45;6.70;;;4.07;;
67160;SDS011;54088;52.238;21.104;2022-09-17T16:30:15;5.65;;;3.72;;
67160;SDS011;54088;52.238;21.104;2022-09-17T16:32:42;6.18;;;3.88;;
67160;SDS011;54088;52.238;21.104;2022-09-17T16:35:11;6.50;;;3.92;;
67160;SDS011;54088;52.238;21.104;2022-09-17T16:37:39;6.38;;;4.45;;
67160;SDS011;54088;52.238;21.104;2022-09-17T16:40:04;7.10;;;4.45;;
67160;SDS011;54088;52.238;21.104;2022-09-17T16:42:31;6.88;;;5.13;;
67160;SDS011;54088;52.238;21.104;2022-09-17T16:44:56;13.40;;;10.90;;
67160;SDS011;54088;52.238;21.104;2022-09-17T16:47:25;8.15;;;5.65;;
67160;SDS011;54088;52.238;21.104;2022-09-17T16:49:50;7.85;;;4.85;;
67160;SDS011;54088;52.238;21.104;2022-09-17T16:52:16;6.75;;;4.18;;
67160;SDS011;54088;52.238;21.104;2022-09-17T16:54:42;6.72;;;4.43;;
67160;SDS011;54088;52.238;21.104;2022-09-17T16:57:08;7.97;;;4.25;;
67160;SDS011;54088;52.238;21.104;2022-09-17T16:59:34;7.05;;;4.60;;
67160;SDS011;54088;52.238;21.104;2022-09-17T17:02:00;7.85;;;4.82;;
67160;SDS011;54088;52.238;21.104;2022-09-17T17:04:26;8.85;;;5.28;;
67160;SDS011;54088;52.238;21.104;2022-09-17T17:06:51;8.30;;;4.88;;
67160;SDS011;54088;52.238;21.104;2022-09-17T17:09:17;6.85;;;4.90;;
67160;SDS011;54088;52.238;21.104;2022-09-17T17:11:43;7.60;;;4.53;;
67160;SDS011;54088;52.238;21.104;2022-09-17T17:14:08;9.00;;;5.30;;
67160;SDS011;54088;52.238;21.104;2022-09-17T17:16:34;8.93;;;5.65;;
67160;SDS011;54088;52.238;21.104;2022-09-17T17:19:00;7.63;;;5.65;;
67160;SDS011;54088;52.238;21.104;2022-09-17T17:21:27;8.82;;;5.70;;
67160;SDS011;54088;52.238;21.104;2022-09-17T17:23:53;9.27;;;5.60;;
67160;SDS011;54088;52.238;21.104;2022-09-17T17:26:19;8.98;;;5.93;;
67160;SDS011;54088;52.238;21.104;2022-09-17T17:28:44;8.60;;;6.35;;
67160;SDS011;54088;52.238;21.104;2022-09-17T17:31:11;13.18;;;6.90;;
67160;SDS011;54088;52.238;21.104;2022-09-17T17:33:37;9.93;;;6.57;;
67160;SDS011;54088;52.238;21.104;2022-09-17T17:36:03;10.05;;;6.30;;
67160;SDS011;54088;52.238;21.104;2022-09-17T17:38:29;9.52;;;6.55;;
67160;SDS011;54088;52.238;21.104;2022-09-17T17:41:08;12.30;;;7.95;;
67160;SDS011;54088;52.238;21.104;2022-09-17T17:43:36;10.05;;;7.60;;
67160;SDS011;54088;52.238;21.104;2022-09-17T17:46:08;14.27;;;9.07;;
67160;SDS011;54088;52.238;21.104;2022-09-17T17:48:35;13.35;;;8.15;;
67160;SDS011;54088;52.238;21.104;2022-09-17T17:51:02;9.50;;;6.70;;
67160;SDS011;54088;52.238;21.104;2022-09-17T17:53:29;9.68;;;6.75;;
67160;SDS011;54088;52.238;21.104;2022-09-17T17:55:59;10.35;;;7.28;;
67160;SDS011;54088;52.238;21.104;2022-09-17T17:58:30;10.55;;;7.30;;
67160;SDS011;54088;52.238;21.104;2022-09-17T18:00:56;10.68;;;6.70;;
67160;SDS011;54088;52.238;21.104;2022-09-17T18:03:22;11.13;;;7.45;;
67160;SDS011;54088;52.238;21.104;2022-09-17T18:05:54;14.57;;;9.02;;
67160;SDS011;54088;52.238;21.104;2022-09-17T18:08:23;12.52;;;9.50;;
67160;SDS011;54088;52.238;21.104;2022-09-17T18:10:55;14.60;;;10.77;;
67160;SDS011;54088;52.238;21.104;2022-09-17T18:13:24;15.35;;;10.05;;
67160;SDS011;54088;52.238;21.104;2022-09-17T18:15:54;15.15;;;10.95;;
67160;SDS011;54088;52.238;21.104;2022-09-17T18:18:22;12.48;;;8.75;;
67160;SDS011;54088;52.238;21.104;2022-09-17T18:20:49;13.93;;;9.32;;
67160;SDS011;54088;52.238;21.104;2022-09-17T18:23:17;13.20;;;9.25;;
67160;SDS011;54088;52.238;21.104;2022-09-17T18:25:56;12.60;;;9.63;;
67160;SDS011;54088;52.238;21.104;2022-09-17T18:28:24;12.15;;;8.82;;
67160;SDS011;54088;52.238;21.104;2022-09-17T18:30:51;12.07;;;8.68;;
67160;SDS011;54088;52.238;21.104;2022-09-17T18:33:20;12.50;;;9.00;;
67160;SDS011;54088;52.238;21.104;2022-09-17T18:35:51;12.45;;;8.85;;
67160;SDS011;54088;52.238;21.104;2022-09-17T18:38:21;12.90;;;9.43;;
67160;SDS011;54088;52.238;21.104;2022-09-17T18:40:48;13.13;;;9.13;;
67160;SDS011;54088;52.238;21.104;2022-09-17T18:43:14;12.10;;;9.10;;
67160;SDS011;54088;52.238;21.104;2022-09-17T18:45:39;11.40;;;8.75;;
67160;SDS011;54088;52.238;21.104;2022-09-17T18:48:07;12.23;;;8.95;;
67160;SDS011;54088;52.238;21.104;2022-09-17T18:50:34;12.25;;;9.43;;
67160;SDS011;54088;52.238;21.104;2022-09-17T18:53:00;11.80;;;9.68;;
67160;SDS011;54088;52.238;21.104;2022-09-17T18:55:26;12.55;;;10.48;;
67160;SDS011;54088;52.238;21.104;2022-09-17T18:57:52;15.85;;;10.38;;
67160;SDS011;54088;52.238;21.104;2022-09-17T19:00:19;12.65;;;10.50;;